createdAt,value
2019-04-20T00:02:13.725Z,100735.30
2019-04-20T00:12:20.286Z,100742.41
2019-04-20T00:22:24.656Z,100737.69
2019-04-20T00:32:42.022Z,100727.94
2019-04-20T00:42:42.218Z,100726.20
2019-04-20T00:52:55.270Z,100720.55
2019-04-20T01:03:08.408Z,100719.45
2019-04-20T01:13:04.366Z,100718.66
2019-04-20T01:23:09.970Z,100707.16
2019-04-20T01:33:29.026Z,100704.41
2019-04-20T01:43:20.607Z,100706.20
2019-04-20T01:53:56.751Z,100705.82
2019-04-20T02:04:00.332Z,100701.34
2019-04-20T02:14:08.403Z,100705.43
2019-04-20T02:24:13.178Z,100702.05
2019-04-20T02:45:17.340Z,100697.36
2019-04-20T03:05:02.630Z,100702.53
2019-04-20T03:15:13.919Z,100706.84
2019-04-20T03:25:46.688Z,100702.76
2019-04-20T03:36:00.399Z,100700.27
2019-04-20T03:45:45.963Z,100706.45
2019-04-20T03:55:56.406Z,100704.84
2019-04-20T04:06:05.470Z,100713.69
2019-04-20T04:16:06.649Z,100717.94
2019-04-20T04:26:26.262Z,100717.62
2019-04-20T04:36:30.163Z,100718.17
2019-04-20T04:46:24.781Z,100719.56
2019-04-20T04:56:30.861Z,100722.59
2019-04-20T05:06:55.858Z,100715.95
2019-04-20T05:16:58.349Z,100713.92
2019-04-20T05:27:15.986Z,100714.87
2019-04-20T05:37:31.283Z,100714.64
2019-04-20T05:47:29.153Z,100713.55
2019-04-20T05:57:36.226Z,100705.40
2019-04-20T06:07:42.052Z,100698.39
2019-04-20T06:17:59.722Z,100705.78
2019-04-20T06:28:11.206Z,100706.64
2019-04-20T06:38:38.657Z,100695.20
2019-04-20T06:48:29.106Z,100698.05
2019-04-20T07:08:51.045Z,100713.89
2019-04-20T07:19:02.344Z,100692.34
2019-04-20T07:29:15.508Z,100700.64
2019-04-20T07:39:21.591Z,100703.38
2019-04-20T07:49:24.743Z,100692.41
2019-04-20T07:59:23.385Z,100695.48
2019-04-20T08:09:30.497Z,100682.84
2019-04-20T08:19:46.986Z,100675.95
2019-04-20T08:29:50.124Z,100664.70
2019-04-20T08:40:07.168Z,100642.31
2019-04-20T08:50:20.969Z,100641.09
2019-04-20T09:00:04.692Z,100631.78
2019-04-20T09:10:36.837Z,100630.23
2019-04-20T09:20:29.251Z,100619.38
2019-04-20T09:30:37.303Z,100622.45
2019-04-20T09:40:51.009Z,100611.62
2019-04-20T10:01:12.420Z,100596.77
2019-04-20T10:11:03.538Z,100569.95
2019-04-20T10:21:09.689Z,100578.58
2019-04-20T10:31:16.690Z,100578.05
2019-04-20T10:41:37.278Z,100570.44
2019-04-20T10:51:29.551Z,100554.05
2019-04-20T11:01:35.804Z,100554.05
2019-04-20T11:11:41.196Z,100561.25
2019-04-20T11:21:46.437Z,100548.95
2019-04-20T11:31:56.012Z,100542.94
2019-04-20T11:41:59.902Z,100538.53
2019-04-20T11:52:05.863Z,100528.73
2019-04-20T12:02:25.057Z,100531.36
2019-04-20T12:12:32.893Z,100511.19
2019-04-20T12:22:30.679Z,100500.84
2019-04-20T12:32:42.880Z,100490.65
2019-04-20T12:42:44.234Z,100485.30
2019-04-20T12:52:50.305Z,100473.88
2019-04-20T13:02:56.045Z,100459.03
2019-04-20T13:13:16.354Z,100452.30
2019-04-20T13:23:22.559Z,100435.84
2019-04-20T13:33:27.769Z,100434.77
2019-04-20T13:43:33.094Z,100434.14
2019-04-20T13:53:39.282Z,100427.80
2019-04-20T14:03:44.983Z,100424.42
2019-04-20T14:13:55.370Z,100410.53
2019-04-20T14:23:57.216Z,100410.56
2019-04-20T14:34:02.708Z,100400.03
2019-04-20T14:44:07.987Z,100392.70
2019-04-20T14:54:13.901Z,100381.39
2019-04-20T15:04:22.063Z,100378.81
2019-04-20T15:14:26.899Z,100372.87
2019-04-20T15:24:33.539Z,100375.59
2019-04-20T15:34:39.270Z,100369.83
2019-04-20T15:44:45.114Z,100360.54
2019-04-20T15:54:51.794Z,100352.03
2019-04-20T16:05:08.271Z,100339.83
2019-04-20T16:15:13.688Z,100334.39
2019-04-20T16:25:37.323Z,100321.14
2019-04-20T16:35:42.973Z,100334.44
2019-04-20T16:45:48.529Z,100341.31
2019-04-20T16:55:54.751Z,100334.27
2019-04-20T17:06:00.468Z,100331.38
2019-04-20T17:16:07.899Z,100334.70
2019-04-20T17:26:14.973Z,100343.70
2019-04-20T17:36:25.271Z,100334.63
2019-04-20T17:46:41.307Z,100339.72
2019-04-20T17:56:36.284Z,100331.91
2019-04-20T18:06:53.746Z,100327.86
2019-04-20T18:17:11.393Z,100340.11
2019-04-20T18:27:26.389Z,100334.89
2019-04-20T18:37:12.054Z,100333.55
2019-04-20T18:47:33.198Z,100342.45
2019-04-20T18:57:27.218Z,100342.28
2019-04-20T19:07:38.689Z,100347.35
2019-04-20T19:17:53.775Z,100341.58
2019-04-20T19:27:52.592Z,100347.32
2019-04-20T19:38:06.388Z,100344.97
2019-04-20T19:48:17.444Z,100341.03
2019-04-20T19:58:22.333Z,100342.34
2019-04-20T20:08:20.925Z,100334.71
2019-04-20T20:18:41.110Z,100340.11
2019-04-20T20:28:40.110Z,100336.47
2019-04-20T20:38:46.933Z,100338.16
2019-04-20T20:49:16.405Z,100343.91
2019-04-20T20:59:02.995Z,100340.98
2019-04-20T21:09:02.052Z,100343.25
2019-04-20T21:19:23.496Z,100341.03
2019-04-20T21:29:21.406Z,100339.61
2019-04-20T21:39:33.571Z,100337.65
2019-04-20T21:49:43.600Z,100342.91
2019-04-20T21:59:43.225Z,100338.05
2019-04-20T22:09:49.203Z,100332.63
2019-04-20T22:20:06.076Z,100339.41
2019-04-20T22:29:59.963Z,100326.77
2019-04-20T22:40:12.732Z,100309.78
2019-04-20T22:50:32.074Z,100310.67
2019-04-20T23:00:31.069Z,100307.61
2019-04-20T23:10:34.870Z,100307.63
2019-04-20T23:20:39.413Z,100298.42
2019-04-20T23:30:45.714Z,100297.92
2019-04-20T23:40:52.140Z,100287.41
2019-04-20T23:51:11.276Z,100278.84
